createdAt,value
2022-10-29T00:00:59.087Z,99.90
2022-10-29T00:03:26.382Z,99.90
2022-10-29T00:06:09.532Z,99.90
2022-10-29T00:08:38.589Z,99.90
2022-10-29T00:11:15.275Z,99.90
2022-10-29T00:13:43.235Z,99.90
2022-10-29T00:16:15.866Z,99.90
2022-10-29T00:18:43.602Z,99.90
2022-10-29T00:21:16.106Z,99.90
2022-10-29T00:23:43.355Z,99.90
2022-10-29T00:26:10.663Z,99.90
2022-10-29T00:28:38.119Z,99.90
2022-10-29T00:31:12.590Z,99.90
2022-10-29T00:33:39.636Z,99.90
2022-10-29T00:36:18.792Z,99.90
2022-10-29T00:38:45.890Z,99.90
2022-10-29T00:41:16.112Z,99.90
2022-10-29T00:43:48.394Z,99.90
2022-10-29T00:46:27.823Z,99.90
2022-10-29T00:48:56.679Z,99.90
2022-10-29T00:51:23.755Z,99.90
2022-10-29T00:53:57.778Z,99.90
2022-10-29T00:56:26.817Z,99.90
2022-10-29T00:58:53.756Z,99.90
2022-10-29T01:01:20.641Z,99.90
2022-10-29T01:03:48.211Z,99.90
2022-10-29T01:06:15.313Z,99.90
2022-10-29T01:08:41.978Z,99.90
2022-10-29T01:11:26.655Z,99.90
2022-10-29T01:14:11.971Z,99.90
2022-10-29T01:17:04.808Z,99.90
2022-10-29T01:19:49.675Z,99.90
2022-10-29T01:22:36.710Z,99.90
2022-10-29T01:25:12.640Z,99.90
2022-10-29T01:27:59.453Z,99.90
2022-10-29T01:30:28.551Z,99.90
2022-10-29T01:33:17.910Z,99.90
2022-10-29T01:36:08.009Z,99.90
2022-10-29T01:38:38.640Z,99.90
2022-10-29T01:41:46.007Z,99.90
2022-10-29T01:44:37.376Z,99.90
2022-10-29T01:47:05.749Z,99.90
2022-10-29T01:49:40.225Z,99.90
2022-10-29T01:52:10.316Z,99.90
2022-10-29T01:54:43.973Z,99.90
2022-10-29T01:57:25.796Z,99.90
2022-10-29T01:59:56.018Z,99.90
2022-10-29T02:02:31.066Z,99.90
2022-10-29T02:05:19.725Z,99.90
2022-10-29T02:07:50.760Z,99.90
2022-10-29T02:10:31.562Z,99.90
2022-10-29T02:12:58.945Z,99.90
2022-10-29T02:15:35.074Z,99.90
2022-10-29T02:18:04.582Z,99.90
2022-10-29T02:20:31.316Z,99.90
2022-10-29T02:22:58.466Z,99.90
2022-10-29T02:25:25.466Z,99.90
2022-10-29T02:27:52.263Z,99.90
2022-10-29T02:30:19.512Z,99.90
2022-10-29T02:32:46.222Z,99.90
2022-10-29T02:35:12.982Z,99.90
2022-10-29T02:37:39.652Z,99.90
2022-10-29T02:40:09.265Z,99.90
2022-10-29T02:42:36.073Z,99.90
2022-10-29T02:45:02.948Z,99.90
2022-10-29T02:47:29.678Z,99.90
2022-10-29T02:49:56.428Z,99.90
2022-10-29T02:52:23.197Z,99.90
2022-10-29T02:54:49.940Z,99.90
2022-10-29T02:57:16.766Z,99.90
2022-10-29T02:59:43.663Z,99.90
2022-10-29T03:02:10.420Z,99.90
2022-10-29T03:04:39.433Z,99.90
2022-10-29T03:07:06.150Z,99.90
2022-10-29T03:09:32.899Z,99.90
2022-10-29T03:11:59.554Z,99.90
2022-10-29T03:14:26.285Z,99.90
2022-10-29T03:16:52.940Z,99.90
2022-10-29T03:19:19.783Z,99.90
2022-10-29T03:21:46.471Z,99.90
2022-10-29T03:24:13.219Z,99.90
2022-10-29T03:26:39.914Z,99.90
2022-10-29T03:29:06.622Z,99.90
2022-10-29T03:31:33.385Z,99.90
2022-10-29T03:34:00.191Z,99.90
2022-10-29T03:36:27.119Z,99.90
2022-10-29T03:38:53.845Z,99.90
2022-10-29T03:41:20.653Z,99.90
2022-10-29T03:43:47.550Z,99.90
2022-10-29T03:46:14.310Z,99.90
2022-10-29T03:48:41.133Z,99.90
2022-10-29T03:51:07.973Z,99.90
2022-10-29T03:53:39.169Z,99.90
2022-10-29T03:56:06.932Z,99.90
2022-10-29T03:58:33.721Z,99.90
2022-10-29T04:01:08.497Z,99.90
2022-10-29T04:03:42.155Z,99.90
2022-10-29T04:06:14.543Z,99.90
2022-10-29T04:08:41.598Z,99.90
2022-10-29T04:11:11.392Z,99.90
2022-10-29T04:13:38.132Z,99.90
2022-10-29T04:16:05.024Z,99.90
2022-10-29T04:18:31.846Z,99.90
2022-10-29T04:29:23.806Z,99.90
2022-10-29T04:31:50.676Z,99.90
2022-10-29T04:34:17.444Z,99.90
2022-10-29T04:36:44.155Z,99.90
2022-10-29T04:39:10.977Z,99.90
2022-10-29T04:41:37.712Z,99.90
2022-10-29T04:44:04.483Z,99.90
2022-10-29T04:46:31.183Z,99.90
2022-10-29T04:48:57.949Z,99.90
2022-10-29T04:51:26.212Z,99.90
2022-10-29T04:53:53.189Z,99.90
2022-10-29T04:56:19.957Z,99.90
2022-10-29T04:58:46.661Z,99.90
2022-10-29T05:01:13.662Z,99.90
2022-10-29T05:03:40.542Z,99.90
2022-10-29T05:06:10.133Z,99.90
2022-10-29T05:08:37.084Z,99.90
2022-10-29T05:11:05.352Z,99.90
2022-10-29T05:13:38.959Z,99.90
2022-10-29T05:16:06.138Z,99.90
2022-10-29T05:18:32.938Z,99.90
2022-10-29T05:20:59.646Z,99.90
2022-10-29T05:23:26.384Z,99.90
2022-10-29T05:25:55.478Z,99.90
2022-10-29T05:28:23.265Z,99.90
2022-10-29T05:30:52.415Z,99.90
2022-10-29T05:33:24.323Z,99.90
2022-10-29T05:35:51.671Z,99.90
2022-10-29T05:38:19.035Z,99.90
2022-10-29T05:40:45.875Z,99.90
2022-10-29T05:43:14.354Z,99.90
2022-10-29T05:45:41.707Z,99.90
2022-10-29T05:48:10.154Z,99.90
2022-10-29T05:50:36.975Z,99.90
2022-10-29T05:53:06.368Z,99.90
2022-10-29T05:55:34.813Z,99.90
2022-10-29T05:58:06.991Z,99.90
2022-10-29T06:00:37.529Z,99.90
2022-10-29T06:03:08.873Z,99.90
2022-10-29T06:05:35.620Z,99.90
2022-10-29T06:08:02.337Z,99.90
2022-10-29T06:10:29.748Z,99.90
2022-10-29T06:12:56.757Z,99.90
2022-10-29T06:15:23.459Z,99.90
2022-10-29T06:17:50.751Z,99.90
2022-10-29T06:20:20.484Z,99.90
2022-10-29T06:22:47.643Z,99.90
2022-10-29T06:25:17.366Z,99.90
2022-10-29T06:27:44.062Z,99.90
2022-10-29T06:30:11.416Z,99.90
2022-10-29T06:32:38.136Z,99.90
2022-10-29T06:35:05.149Z,99.90
2022-10-29T06:37:33.291Z,99.90
2022-10-29T06:40:00.103Z,99.90
2022-10-29T06:42:27.005Z,99.90
2022-10-29T06:44:53.704Z,99.90
2022-10-29T06:47:20.416Z,99.90
2022-10-29T06:49:47.369Z,99.90
2022-10-29T06:52:14.147Z,99.90
2022-10-29T06:54:41.125Z,99.90
2022-10-29T06:57:08.020Z,99.90
2022-10-29T06:59:34.958Z,99.90
2022-10-29T07:02:01.792Z,99.90
2022-10-29T07:04:28.526Z,99.90
2022-10-29T07:06:57.924Z,99.90
2022-10-29T07:09:24.672Z,99.90
2022-10-29T07:11:51.527Z,99.90
2022-10-29T07:14:18.217Z,99.90
2022-10-29T07:16:46.241Z,99.90
2022-10-29T07:19:13.882Z,99.90
2022-10-29T07:21:43.178Z,99.90
2022-10-29T07:24:12.928Z,99.90
2022-10-29T07:26:40.039Z,99.90
2022-10-29T07:29:06.695Z,99.90
2022-10-29T07:31:35.051Z,99.90
2022-10-29T07:34:02.002Z,99.90
2022-10-29T07:36:32.040Z,99.90
2022-10-29T07:38:58.904Z,99.90
2022-10-29T07:41:26.369Z,99.90
2022-10-29T07:43:53.219Z,99.90
2022-10-29T07:46:22.974Z,99.90
2022-10-29T07:48:49.750Z,99.90
2022-10-29T07:51:16.446Z,99.90
2022-10-29T07:53:43.266Z,99.90
2022-10-29T07:56:15.899Z,99.90
2022-10-29T07:58:42.961Z,99.90
2022-10-29T08:01:10.097Z,99.90
2022-10-29T08:03:37.108Z,99.90
2022-10-29T08:06:05.758Z,99.90
2022-10-29T08:08:34.787Z,99.90
2022-10-29T08:12:10.881Z,99.90
2022-10-29T08:14:38.947Z,99.90
2022-10-29T08:17:08.549Z,99.90
2022-10-29T08:19:35.295Z,99.90
2022-10-29T08:22:02.033Z,99.90
2022-10-29T08:24:28.754Z,99.90
2022-10-29T08:26:55.432Z,99.90
2022-10-29T08:29:22.156Z,99.90
2022-10-29T08:31:48.889Z,99.90
2022-10-29T08:34:15.711Z,99.90
2022-10-29T08:36:42.412Z,99.90
2022-10-29T08:39:09.215Z,99.90
2022-10-29T08:41:47.044Z,99.90
2022-10-29T08:44:25.781Z,99.90
2022-10-29T08:47:15.620Z,99.90
2022-10-29T08:49:48.593Z,99.90
2022-10-29T08:52:24.216Z,99.90
2022-10-29T08:55:20.980Z,99.90
2022-10-29T08:57:55.357Z,99.90
2022-10-29T09:00:34.847Z,99.90
2022-10-29T09:03:01.910Z,99.90
2022-10-29T09:05:53.473Z,99.90
2022-10-29T09:08:26.160Z,99.90
2022-10-29T09:11:01.309Z,99.90
2022-10-29T09:14:02.020Z,99.90
2022-10-29T09:16:56.539Z,99.90
2022-10-29T09:19:40.412Z,99.90
2022-10-29T09:22:16.442Z,99.90
2022-10-29T09:25:12.018Z,99.90
2022-10-29T09:28:03.751Z,99.90
2022-10-29T09:30:31.557Z,99.90
2022-10-29T09:33:07.158Z,99.90
2022-10-29T09:35:39.794Z,99.90
2022-10-29T09:38:34.426Z,99.90
2022-10-29T09:41:02.807Z,99.90
2022-10-29T09:43:43.229Z,99.90
2022-10-29T09:46:18.667Z,99.90
2022-10-29T09:48:54.207Z,99.90
2022-10-29T09:51:42.351Z,99.90
2022-10-29T09:54:10.003Z,99.90
2022-10-29T09:56:42.100Z,99.90
2022-10-29T09:59:32.181Z,99.90
2022-10-29T10:01:59.867Z,99.90
2022-10-29T10:04:45.225Z,99.90
2022-10-29T10:07:17.398Z,99.90
2022-10-29T10:09:56.125Z,99.90
2022-10-29T10:12:28.653Z,99.90
2022-10-29T10:15:17.415Z,99.90
2022-10-29T10:18:07.119Z,99.90
2022-10-29T10:20:35.779Z,99.90
2022-10-29T10:23:19.235Z,99.90
2022-10-29T10:25:46.376Z,99.90
2022-10-29T10:28:23.922Z,99.90
2022-10-29T10:31:10.304Z,99.90
2022-10-29T10:33:48.151Z,99.90
2022-10-29T10:36:36.092Z,99.90
2022-10-29T10:39:02.970Z,99.90
2022-10-29T10:41:34.201Z,99.90
2022-10-29T10:44:04.019Z,99.90
2022-10-29T10:46:39.714Z,99.90
2022-10-29T10:49:15.530Z,99.90
2022-10-29T10:51:49.438Z,99.90
2022-10-29T10:54:41.797Z,99.90
2022-10-29T10:57:11.466Z,99.90
2022-10-29T11:00:00.377Z,99.90
2022-10-29T11:02:50.644Z,99.90
2022-10-29T11:05:29.102Z,99.90
2022-10-29T11:08:20.590Z,99.90
2022-10-29T11:11:27.469Z,99.90
2022-10-29T11:13:58.479Z,99.90
2022-10-29T11:16:38.895Z,99.90
2022-10-29T11:19:28.510Z,99.90
2022-10-29T11:22:14.003Z,99.90
2022-10-29T11:24:43.671Z,99.90
2022-10-29T11:27:19.152Z,99.90
2022-10-29T11:30:06.687Z,99.90
2022-10-29T11:32:58.826Z,99.90
2022-10-29T11:35:41.476Z,99.90
2022-10-29T11:38:25.797Z,99.90
2022-10-29T11:41:04.898Z,99.90
2022-10-29T11:43:33.382Z,99.90
2022-10-29T11:46:28.726Z,99.90
2022-10-29T11:49:25.128Z,99.90
2022-10-29T11:52:12.372Z,99.90
2022-10-29T11:54:55.408Z,99.90
2022-10-29T11:57:36.339Z,99.90
2022-10-29T12:00:16.689Z,99.90
2022-10-29T12:03:04.150Z,99.90
2022-10-29T12:05:52.846Z,99.90
2022-10-29T12:09:01.408Z,99.90
2022-10-29T12:11:35.814Z,99.90
2022-10-29T12:14:26.734Z,99.90
2022-10-29T12:17:00.034Z,99.90
2022-10-29T12:19:45.874Z,99.90
2022-10-29T12:22:23.113Z,99.90
2022-10-29T12:25:28.232Z,99.90
2022-10-29T12:28:32.486Z,99.90
2022-10-29T12:30:59.144Z,99.90
2022-10-29T12:33:37.737Z,99.90
2022-10-29T12:36:13.666Z,99.90
2022-10-29T12:38:48.697Z,99.90
2022-10-29T12:41:23.492Z,99.90
2022-10-29T12:43:53.545Z,99.40
2022-10-29T12:46:59.355Z,98.60
2022-10-29T12:49:50.197Z,97.80
2022-10-29T12:52:38.658Z,96.70
2022-10-29T12:55:07.653Z,94.90
2022-10-29T12:57:35.854Z,95.10
2022-10-29T13:00:24.497Z,94.60
2022-10-29T13:02:55.393Z,94.50
2022-10-29T13:05:25.575Z,95.60
2022-10-29T13:08:09.206Z,95.60
2022-10-29T13:10:35.908Z,95.80
2022-10-29T13:13:18.336Z,95.60
2022-10-29T13:15:57.161Z,95.60
2022-10-29T13:18:28.714Z,96.60
2022-10-29T13:20:56.054Z,97.40
2022-10-29T13:23:23.288Z,97.70
2022-10-29T13:25:51.319Z,97.80
2022-10-29T13:28:22.623Z,98.30
2022-10-29T13:31:03.705Z,98.50
2022-10-29T13:33:30.539Z,99.50
2022-10-29T13:36:03.340Z,99.70
2022-10-29T13:38:36.093Z,99.90
2022-10-29T13:41:11.967Z,99.90
2022-10-29T13:43:40.467Z,99.90
2022-10-29T13:46:13.316Z,99.90
2022-10-29T13:48:41.276Z,99.90
2022-10-29T13:51:10.119Z,99.90
2022-10-29T13:53:47.394Z,99.90
2022-10-29T13:56:20.517Z,99.90
2022-10-29T13:58:48.723Z,99.90
2022-10-29T14:01:18.918Z,99.90
2022-10-29T14:04:06.933Z,99.90
2022-10-29T14:06:38.332Z,99.90
2022-10-29T14:09:27.815Z,99.90
2022-10-29T14:12:02.549Z,99.90
2022-10-29T14:14:36.124Z,99.90
2022-10-29T14:17:10.530Z,99.90
2022-10-29T14:19:37.394Z,99.90
2022-10-29T14:22:33.735Z,99.90
2022-10-29T14:25:02.112Z,99.90
2022-10-29T14:27:29.787Z,99.90
2022-10-29T14:30:29.250Z,99.90
2022-10-29T14:32:55.986Z,99.90
2022-10-29T14:35:22.775Z,99.90
2022-10-29T14:37:49.870Z,99.90
2022-10-29T14:40:23.063Z,99.90
2022-10-29T14:42:55.717Z,99.90
2022-10-29T14:45:28.533Z,99.90
2022-10-29T14:48:03.412Z,99.90
2022-10-29T14:50:31.076Z,99.90
2022-10-29T14:53:06.119Z,99.90
2022-10-29T14:55:40.042Z,99.90
2022-10-29T14:58:19.345Z,99.90
2022-10-29T15:01:03.433Z,99.90
2022-10-29T15:03:32.883Z,99.90
2022-10-29T15:06:16.878Z,99.90
2022-10-29T15:08:46.842Z,99.90
2022-10-29T15:11:36.557Z,99.90
2022-10-29T15:14:05.928Z,99.90
2022-10-29T15:16:36.906Z,99.90
2022-10-29T15:19:14.480Z,99.90
2022-10-29T15:21:41.289Z,99.90
2022-10-29T15:24:17.773Z,99.90
2022-10-29T15:26:58.796Z,99.90
2022-10-29T15:29:34.058Z,99.90
2022-10-29T15:32:01.676Z,99.90
2022-10-29T15:34:37.072Z,99.90
2022-10-29T15:37:19.087Z,99.90
2022-10-29T15:40:09.284Z,99.90
2022-10-29T15:42:36.972Z,99.90
2022-10-29T15:45:30.132Z,99.90
2022-10-29T15:48:18.027Z,99.90
2022-10-29T15:50:45.581Z,99.90
2022-10-29T15:53:15.825Z,99.90
2022-10-29T15:55:43.734Z,99.90
2022-10-29T15:58:10.489Z,99.90
2022-10-29T16:00:37.224Z,99.90
2022-10-29T16:03:17.707Z,99.90
2022-10-29T16:05:47.226Z,99.90
2022-10-29T16:08:27.343Z,99.90
2022-10-29T16:10:55.286Z,99.90
2022-10-29T16:13:24.047Z,99.90
2022-10-29T16:15:51.074Z,99.90
2022-10-29T16:18:18.223Z,99.90
2022-10-29T16:20:44.989Z,99.90
2022-10-29T16:23:12.266Z,99.90
2022-10-29T16:25:39.784Z,99.90
2022-10-29T16:28:07.159Z,99.90
2022-10-29T16:30:34.968Z,99.90
2022-10-29T16:33:02.405Z,99.90
2022-10-29T16:35:30.220Z,99.90
2022-10-29T16:37:57.751Z,99.90
2022-10-29T16:40:27.546Z,99.90
2022-10-29T16:42:55.055Z,99.90
2022-10-29T16:45:26.151Z,99.90
2022-10-29T16:47:53.533Z,99.90
2022-10-29T16:50:22.989Z,99.90
2022-10-29T16:52:57.823Z,99.90
2022-10-29T16:55:25.647Z,99.90
2022-10-29T16:57:52.494Z,99.90
2022-10-29T17:00:19.616Z,99.90
2022-10-29T17:02:46.579Z,99.90
2022-10-29T17:05:28.221Z,99.90
2022-10-29T17:07:55.830Z,99.90
2022-10-29T17:10:23.185Z,99.90
2022-10-29T17:12:50.432Z,99.90
2022-10-29T17:15:31.622Z,99.90
2022-10-29T17:17:58.951Z,99.90
2022-10-29T17:20:26.091Z,99.90
2022-10-29T17:22:53.372Z,99.90
2022-10-29T17:25:20.160Z,99.90
2022-10-29T17:27:46.852Z,99.90
2022-10-29T17:30:13.796Z,99.90
2022-10-29T17:32:40.774Z,99.90
2022-10-29T17:35:17.417Z,99.90
2022-10-29T17:38:01.114Z,99.90
2022-10-29T17:40:27.933Z,99.90
2022-10-29T17:42:55.389Z,99.90
2022-10-29T17:45:23.845Z,99.90
2022-10-29T17:47:57.864Z,99.90
2022-10-29T17:50:25.778Z,99.90
2022-10-29T17:52:57.868Z,99.90
2022-10-29T17:55:24.919Z,99.90
2022-10-29T17:57:51.695Z,99.90
2022-10-29T18:00:19.264Z,99.90
2022-10-29T18:02:50.096Z,99.90
2022-10-29T18:05:17.737Z,99.90
2022-10-29T18:07:44.455Z,99.90
2022-10-29T18:10:11.207Z,99.90
2022-10-29T18:12:37.887Z,99.90
2022-10-29T18:15:05.376Z,99.90
2022-10-29T18:17:32.519Z,99.90
2022-10-29T18:19:59.211Z,99.90
2022-10-29T18:22:25.963Z,99.90
2022-10-29T18:24:52.656Z,99.90
2022-10-29T18:27:20.236Z,99.90
2022-10-29T18:29:47.068Z,99.90
2022-10-29T18:32:13.866Z,99.90
2022-10-29T18:34:40.670Z,99.90
2022-10-29T18:37:07.667Z,99.90
2022-10-29T18:39:34.449Z,99.90
2022-10-29T18:42:01.432Z,99.90
2022-10-29T18:44:28.420Z,99.90
2022-10-29T18:46:55.364Z,99.90
2022-10-29T18:49:22.124Z,99.90
2022-10-29T18:51:48.849Z,99.90
2022-10-29T18:54:15.737Z,99.90
2022-10-29T18:56:42.851Z,99.90
2022-10-29T18:59:11.472Z,99.90
2022-10-29T19:01:38.581Z,99.90
2022-10-29T19:04:08.496Z,99.90
2022-10-29T19:06:36.883Z,99.90
2022-10-29T19:09:07.137Z,99.90
2022-10-29T19:11:34.395Z,99.90
2022-10-29T19:14:10.012Z,99.90
2022-10-29T19:16:41.539Z,99.90
2022-10-29T19:19:11.689Z,99.90
2022-10-29T19:21:40.006Z,99.90
2022-10-29T19:24:09.957Z,99.90
2022-10-29T19:26:36.792Z,99.90
2022-10-29T19:29:05.593Z,99.90
2022-10-29T19:31:34.618Z,99.90
2022-10-29T19:34:05.961Z,99.90
2022-10-29T19:36:34.466Z,99.90
2022-10-29T19:39:01.585Z,99.90
2022-10-29T19:41:29.300Z,99.90
2022-10-29T19:43:59.975Z,99.90
2022-10-29T19:46:27.179Z,99.90
2022-10-29T19:48:58.359Z,99.90
2022-10-29T19:51:25.307Z,99.90
2022-10-29T19:53:52.030Z,99.90
2022-10-29T19:56:20.170Z,99.90
2022-10-29T19:58:47.248Z,99.90
2022-10-29T20:01:18.943Z,99.90
2022-10-29T20:03:46.875Z,99.90
2022-10-29T20:06:14.854Z,99.90
2022-10-29T20:08:41.664Z,99.90
2022-10-29T20:11:08.684Z,99.90
2022-10-29T20:13:39.767Z,99.90
2022-10-29T20:16:16.732Z,99.90
2022-10-29T20:18:43.493Z,99.90
2022-10-29T20:21:10.248Z,99.90
2022-10-29T20:23:37.047Z,99.90
2022-10-29T20:26:04.430Z,99.90
2022-10-29T20:28:31.210Z,99.90
2022-10-29T20:31:18.833Z,99.90
2022-10-29T20:34:01.632Z,99.90
2022-10-29T20:36:31.269Z,99.90
2022-10-29T20:39:01.460Z,99.90
2022-10-29T20:41:31.305Z,99.90
2022-10-29T20:44:01.080Z,99.90
2022-10-29T20:46:28.585Z,99.90
2022-10-29T20:48:55.608Z,99.90
2022-10-29T20:51:25.162Z,99.90
2022-10-29T20:53:52.814Z,99.90
2022-10-29T20:56:21.322Z,99.90
2022-10-29T20:58:48.200Z,99.90
2022-10-29T21:01:17.618Z,99.90
2022-10-29T21:03:45.266Z,99.90
2022-10-29T21:06:17.108Z,99.90
2022-10-29T21:08:48.577Z,99.90
2022-10-29T21:11:20.420Z,99.90
2022-10-29T21:13:47.203Z,99.90
2022-10-29T21:16:31.425Z,99.90
2022-10-29T21:19:00.943Z,99.90
2022-10-29T21:21:29.093Z,99.90
2022-10-29T21:23:56.580Z,99.90
2022-10-29T21:26:25.010Z,99.90
2022-10-29T21:28:55.736Z,99.90
2022-10-29T21:31:23.431Z,99.90
2022-10-29T21:33:54.776Z,99.90
2022-10-29T21:36:22.646Z,99.90
2022-10-29T21:38:52.260Z,99.90
2022-10-29T21:41:18.959Z,99.90
2022-10-29T21:43:46.121Z,99.90
2022-10-29T21:46:12.885Z,99.90
2022-10-29T21:48:39.646Z,99.90
2022-10-29T21:51:09.814Z,99.90
2022-10-29T21:53:36.757Z,99.90
2022-10-29T21:56:06.272Z,99.90
2022-10-29T21:58:33.510Z,99.90
2022-10-29T22:01:07.008Z,99.90
2022-10-29T22:03:38.472Z,99.90
2022-10-29T22:06:13.946Z,99.90
2022-10-29T22:08:41.908Z,99.90
2022-10-29T22:11:09.279Z,99.90
2022-10-29T22:13:36.452Z,99.90
2022-10-29T22:16:05.171Z,99.90
2022-10-29T22:18:32.492Z,99.90
2022-10-29T22:21:20.312Z,99.90
2022-10-29T22:23:49.297Z,99.90
2022-10-29T22:26:18.510Z,99.90
2022-10-29T22:28:47.134Z,99.90
2022-10-29T22:31:15.310Z,99.90
2022-10-29T22:33:43.183Z,99.90
2022-10-29T22:36:25.071Z,99.90
2022-10-29T22:38:56.235Z,99.90
2022-10-29T22:41:23.936Z,99.90
2022-10-29T22:43:50.611Z,99.90
2022-10-29T22:46:19.218Z,99.90
2022-10-29T22:48:46.525Z,99.90
2022-10-29T22:51:16.155Z,99.90
2022-10-29T22:53:43.585Z,99.90
2022-10-29T22:56:15.498Z,99.90
2022-10-29T22:58:42.412Z,99.90
2022-10-29T23:01:18.295Z,99.90
2022-10-29T23:03:45.633Z,99.90
2022-10-29T23:06:14.900Z,99.90
2022-10-29T23:08:45.316Z,99.90
2022-10-29T23:11:21.393Z,99.90
2022-10-29T23:13:50.305Z,99.90
2022-10-29T23:16:17.041Z,99.90
2022-10-29T23:18:48.082Z,99.90
2022-10-29T23:21:14.840Z,99.90
2022-10-29T23:23:41.883Z,99.90
2022-10-29T23:26:11.216Z,99.90
2022-10-29T23:28:39.789Z,99.90
2022-10-29T23:31:21.068Z,99.90
2022-10-29T23:33:53.840Z,99.90
2022-10-29T23:36:22.569Z,99.90
2022-10-29T23:38:58.048Z,99.90
2022-10-29T23:41:26.155Z,99.90
2022-10-29T23:43:53.103Z,99.90
2022-10-29T23:46:20.340Z,99.90
2022-10-29T23:48:47.258Z,99.90
2022-10-29T23:51:14.072Z,99.90
2022-10-29T23:53:41.185Z,99.90
2022-10-29T23:56:08.095Z,99.90
2022-10-29T23:58:34.885Z,99.90
